sensor_id;sensor_type;location;lat;lon;timestamp;P1;P2;P0
42410;PMS5003;28056;51.112;0.984;2023-01-19T00:00:48;33;31;
42410;PMS5003;28056;51.112;0.984;2023-01-19T00:03:15;39;31;
42410;PMS5003;28056;51.112;0.984;2023-01-19T00:05:42;37;28;
42410;PMS5003;28056;51.112;0.984;2023-01-19T00:08:11;27;25;
42410;PMS5003;28056;51.112;0.984;2023-01-19T00:10:39;25;24;
42410;PMS5003;28056;51.112;0.984;2023-01-19T00:13:07;31;28;
42410;PMS5003;28056;51.112;0.984;2023-01-19T00:15:34;30;24;
42410;PMS5003;28056;51.112;0.984;2023-01-19T00:18:01;36;22;
42410;PMS5003;28056;51.112;0.984;2023-01-19T00:20:30;33;33;
42410;PMS5003;28056;51.112;0.984;2023-01-19T00:22:58;27;24;
42410;PMS5003;28056;51.112;0.984;2023-01-19T00:25:25;31;27;
42410;PMS5003;28056;51.112;0.984;2023-01-19T00:27:52;22;21;
42410;PMS5003;28056;51.112;0.984;2023-01-19T00:30:19;24;22;
42410;PMS5003;28056;51.112;0.984;2023-01-19T00:32:46;30;21;
42410;PMS5003;28056;51.112;0.984;2023-01-19T00:35:14;30;22;
42410;PMS5003;28056;51.112;0.984;2023-01-19T00:37:41;25;21;
42410;PMS5003;28056;51.112;0.984;2023-01-19T00:40:09;34;30;
42410;PMS5003;28056;51.112;0.984;2023-01-19T00:42:37;30;25;
42410;PMS5003;28056;51.112;0.984;2023-01-19T00:45:05;24;19;
42410;PMS5003;28056;51.112;0.984;2023-01-19T00:47:33;30;25;
42410;PMS5003;28056;51.112;0.984;2023-01-19T00:50:00;28;25;
42410;PMS5003;28056;51.112;0.984;2023-01-19T00:52:28;27;25;
42410;PMS5003;28056;51.112;0.984;2023-01-19T00:54:56;24;22;
42410;PMS5003;28056;51.112;0.984;2023-01-19T00:57:23;30;27;
42410;PMS5003;28056;51.112;0.984;2023-01-19T00:59:50;30;22;
42410;PMS5003;28056;51.112;0.984;2023-01-19T01:04:46;24;19;
42410;PMS5003;28056;51.112;0.984;2023-01-19T01:07:14;21;16;
42410;PMS5003;28056;51.112;0.984;2023-01-19T01:09:42;25;21;
42410;PMS5003;28056;51.112;0.984;2023-01-19T01:12:12;30;22;
42410;PMS5003;28056;51.112;0.984;2023-01-19T01:14:39;25;22;
42410;PMS5003;28056;51.112;0.984;2023-01-19T01:17:06;22;22;
42410;PMS5003;28056;51.112;0.984;2023-01-19T01:19:33;24;22;
42410;PMS5003;28056;51.112;0.984;2023-01-19T01:22:01;22;19;
42410;PMS5003;28056;51.112;0.984;2023-01-19T01:24:28;22;19;
42410;PMS5003;28056;51.112;0.984;2023-01-19T01:26:56;24;16;
42410;PMS5003;28056;51.112;0.984;2023-01-19T01:29:23;28;18;
42410;PMS5003;28056;51.112;0.984;2023-01-19T01:31:51;24;21;
42410;PMS5003;28056;51.112;0.984;2023-01-19T01:34:18;21;18;
42410;PMS5003;28056;51.112;0.984;2023-01-19T01:36:45;34;27;
42410;PMS5003;28056;51.112;0.984;2023-01-19T01:39:13;18;18;
42410;PMS5003;28056;51.112;0.984;2023-01-19T01:41:40;27;25;
42410;PMS5003;28056;51.112;0.984;2023-01-19T01:46:20;27;24;
42410;PMS5003;28056;51.112;0.984;2023-01-19T01:48:48;25;24;
42410;PMS5003;28056;51.112;0.984;2023-01-19T01:51:21;30;24;
42410;PMS5003;28056;51.112;0.984;2023-01-19T01:53:58;27;25;
42410;PMS5003;28056;51.112;0.984;2023-01-19T01:56:33;24;21;
42410;PMS5003;28056;51.112;0.984;2023-01-19T01:59:04;31;24;
42410;PMS5003;28056;51.112;0.984;2023-01-19T02:01:34;28;26;
42410;PMS5003;28056;51.112;0.984;2023-01-19T02:04:02;20;20;
42410;PMS5003;28056;51.112;0.984;2023-01-19T02:06:37;33;24;
42410;PMS5003;28056;51.112;0.984;2023-01-19T02:09:05;21;16;
42410;PMS5003;28056;51.112;0.984;2023-01-19T02:11:36;21;16;
42410;PMS5003;28056;51.112;0.984;2023-01-19T02:14:07;21;19;
42410;PMS5003;28056;51.112;0.984;2023-01-19T02:16:34;22;16;
42410;PMS5003;28056;51.112;0.984;2023-01-19T02:19:03;21;16;
42410;PMS5003;28056;51.112;0.984;2023-01-19T02:21:34;21;16;
42410;PMS5003;28056;51.112;0.984;2023-01-19T02:24:07;13;13;
42410;PMS5003;28056;51.112;0.984;2023-01-19T02:26:37;19;16;
42410;PMS5003;28056;51.112;0.984;2023-01-19T02:29:08;16;15;
42410;PMS5003;28056;51.112;0.984;2023-01-19T02:31:37;18;15;
42410;PMS5003;28056;51.112;0.984;2023-01-19T02:34:06;18;15;
42410;PMS5003;28056;51.112;0.984;2023-01-19T02:36:36;15;13;
42410;PMS5003;28056;51.112;0.984;2023-01-19T02:39:12;16;13;
42410;PMS5003;28056;51.112;0.984;2023-01-19T02:41:41;16;15;
42410;PMS5003;28056;51.112;0.984;2023-01-19T02:44:14;15;13;
42410;PMS5003;28056;51.112;0.984;2023-01-19T02:46:43;19;16;
42410;PMS5003;28056;51.112;0.984;2023-01-19T02:49:11;21;18;
42410;PMS5003;28056;51.112;0.984;2023-01-19T02:51:38;16;13;
42410;PMS5003;28056;51.112;0.984;2023-01-19T02:54:12;16;12;
42410;PMS5003;28056;51.112;0.984;2023-01-19T02:56:56;16;10;
42410;PMS5003;28056;51.112;0.984;2023-01-19T02:59:38;13;12;
42410;PMS5003;28056;51.112;0.984;2023-01-19T03:02:16;19;13;
42410;PMS5003;28056;51.112;0.984;2023-01-19T03:04:57;18;15;
42410;PMS5003;28056;51.112;0.984;2023-01-19T03:07:36;15;12;
42410;PMS5003;28056;51.112;0.984;2023-01-19T03:10:14;24;19;
42410;PMS5003;28056;51.112;0.984;2023-01-19T03:12:49;28;22;
42410;PMS5003;28056;51.112;0.984;2023-01-19T03:15:24;30;25;
42410;PMS5003;28056;51.112;0.984;2023-01-19T03:17:57;29;28;
42410;PMS5003;28056;51.112;0.984;2023-01-19T03:20:28;23;22;
42410;PMS5003;28056;51.112;0.984;2023-01-19T03:22:57;26;22;
42410;PMS5003;28056;51.112;0.984;2023-01-19T03:25:28;23;20;
42410;PMS5003;28056;51.112;0.984;2023-01-19T03:28:01;25;25;
42410;PMS5003;28056;51.112;0.984;2023-01-19T03:30:31;16;14;
42410;PMS5003;28056;51.112;0.984;2023-01-19T03:33:03;19;19;
42410;PMS5003;28056;51.112;0.984;2023-01-19T03:35:35;19;16;
42410;PMS5003;28056;51.112;0.984;2023-01-19T03:38:10;18;18;
42410;PMS5003;28056;51.112;0.984;2023-01-19T03:40:41;12;12;
42410;PMS5003;28056;51.112;0.984;2023-01-19T03:43:10;15;12;
42410;PMS5003;28056;51.112;0.984;2023-01-19T03:45:40;18;13;
42410;PMS5003;28056;51.112;0.984;2023-01-19T03:48:10;15;15;
42410;PMS5003;28056;51.112;0.984;2023-01-19T03:50:37;13;12;
42410;PMS5003;28056;51.112;0.984;2023-01-19T03:53:05;19;15;
42410;PMS5003;28056;51.112;0.984;2023-01-19T03:55:35;13;13;
42410;PMS5003;28056;51.112;0.984;2023-01-19T03:58:04;15;10;
42410;PMS5003;28056;51.112;0.984;2023-01-19T04:00:32;16;13;
42410;PMS5003;28056;51.112;0.984;2023-01-19T04:03:00;21;15;
42410;PMS5003;28056;51.112;0.984;2023-01-19T04:05:27;12;12;
42410;PMS5003;28056;51.112;0.984;2023-01-19T04:07:54;18;12;
42410;PMS5003;28056;51.112;0.984;2023-01-19T04:10:22;16;15;
42410;PMS5003;28056;51.112;0.984;2023-01-19T04:12:55;14;11;
42410;PMS5003;28056;51.112;0.984;2023-01-19T04:15:23;25;14;
42410;PMS5003;28056;51.112;0.984;2023-01-19T04:17:51;13;13;
42410;PMS5003;28056;51.112;0.984;2023-01-19T04:20:19;13;13;
42410;PMS5003;28056;51.112;0.984;2023-01-19T04:22:46;13;11;
42410;PMS5003;28056;51.112;0.984;2023-01-19T04:25:14;16;16;
42410;PMS5003;28056;51.112;0.984;2023-01-19T04:27:41;13;11;
42410;PMS5003;28056;51.112;0.984;2023-01-19T04:30:10;17;16;
42410;PMS5003;28056;51.112;0.984;2023-01-19T04:32:38;13;13;
42410;PMS5003;28056;51.112;0.984;2023-01-19T04:35:05;15;12;
42410;PMS5003;28056;51.112;0.984;2023-01-19T04:37:33;19;13;
42410;PMS5003;28056;51.112;0.984;2023-01-19T04:40:00;13;13;
42410;PMS5003;28056;51.112;0.984;2023-01-19T04:42:27;16;16;
42410;PMS5003;28056;51.112;0.984;2023-01-19T04:44:54;15;12;
42410;PMS5003;28056;51.112;0.984;2023-01-19T04:47:22;16;12;
42410;PMS5003;28056;51.112;0.984;2023-01-19T04:49:49;13;13;
42410;PMS5003;28056;51.112;0.984;2023-01-19T04:52:16;13;13;
42410;PMS5003;28056;51.112;0.984;2023-01-19T04:54:44;13;10;
42410;PMS5003;28056;51.112;0.984;2023-01-19T04:57:11;13;13;
42410;PMS5003;28056;51.112;0.984;2023-01-19T04:59:38;13;13;
42410;PMS5003;28056;51.112;0.984;2023-01-19T05:02:05;13;13;
42410;PMS5003;28056;51.112;0.984;2023-01-19T05:04:33;12;10;
42410;PMS5003;28056;51.112;0.984;2023-01-19T05:07:00;16;16;
42410;PMS5003;28056;51.112;0.984;2023-01-19T05:09:27;15;12;
42410;PMS5003;28056;51.112;0.984;2023-01-19T05:11:55;13;12;
42410;PMS5003;28056;51.112;0.984;2023-01-19T05:14:22;15;10;
42410;PMS5003;28056;51.112;0.984;2023-01-19T05:16:49;13;10;
42410;PMS5003;28056;51.112;0.984;2023-01-19T05:19:16;16;12;
42410;PMS5003;28056;51.112;0.984;2023-01-19T05:21:44;21;13;
42410;PMS5003;28056;51.112;0.984;2023-01-19T05:24:10;18;16;
42410;PMS5003;28056;51.112;0.984;2023-01-19T05:26:38;13;12;
42410;PMS5003;28056;51.112;0.984;2023-01-19T05:29:05;22;15;
42410;PMS5003;28056;51.112;0.984;2023-01-19T05:31:33;15;12;
42410;PMS5003;28056;51.112;0.984;2023-01-19T05:34:00;12;12;
42410;PMS5003;28056;51.112;0.984;2023-01-19T05:36:27;15;12;
42410;PMS5003;28056;51.112;0.984;2023-01-19T05:38:54;12;12;
42410;PMS5003;28056;51.112;0.984;2023-01-19T05:41:22;15;13;
42410;PMS5003;28056;51.112;0.984;2023-01-19T05:43:49;16;12;
42410;PMS5003;28056;51.112;0.984;2023-01-19T05:46:16;12;12;
42410;PMS5003;28056;51.112;0.984;2023-01-19T05:48:44;16;12;
42410;PMS5003;28056;51.112;0.984;2023-01-19T05:51:11;21;13;
42410;PMS5003;28056;51.112;0.984;2023-01-19T05:53:38;21;16;
42410;PMS5003;28056;51.112;0.984;2023-01-19T05:56:07;19;18;
42410;PMS5003;28056;51.112;0.984;2023-01-19T05:58:35;21;21;
42410;PMS5003;28056;51.112;0.984;2023-01-19T06:01:03;57;43;
42410;PMS5003;28056;51.112;0.984;2023-01-19T06:03:32;40;33;
42410;PMS5003;28056;51.112;0.984;2023-01-19T06:06:01;19;14;
42410;PMS5003;28056;51.112;0.984;2023-01-19T06:08:29;16;13;
42410;PMS5003;28056;51.112;0.984;2023-01-19T06:10:57;11;10;
42410;PMS5003;28056;51.112;0.984;2023-01-19T06:13:24;13;13;
42410;PMS5003;28056;51.112;0.984;2023-01-19T06:15:57;17;13;
42410;PMS5003;28056;51.112;0.984;2023-01-19T06:18:25;14;11;
42410;PMS5003;28056;51.112;0.984;2023-01-19T06:20:53;16;16;
42410;PMS5003;28056;51.112;0.984;2023-01-19T06:23:20;11;11;
42410;PMS5003;28056;51.112;0.984;2023-01-19T06:25:47;19;15;
42410;PMS5003;28056;51.112;0.984;2023-01-19T06:28:15;16;13;
42410;PMS5003;28056;51.112;0.984;2023-01-19T06:30:46;15;13;
42410;PMS5003;28056;51.112;0.984;2023-01-19T06:33:14;15;15;
42410;PMS5003;28056;51.112;0.984;2023-01-19T06:35:42;16;11;
42410;PMS5003;28056;51.112;0.984;2023-01-19T06:38:09;13;13;
42410;PMS5003;28056;51.112;0.984;2023-01-19T06:40:36;12;12;
42410;PMS5003;28056;51.112;0.984;2023-01-19T06:43:04;22;12;
42410;PMS5003;28056;51.112;0.984;2023-01-19T06:45:31;19;16;
42410;PMS5003;28056;51.112;0.984;2023-01-19T06:47:59;17;13;
42410;PMS5003;28056;51.112;0.984;2023-01-19T06:50:26;10;10;
42410;PMS5003;28056;51.112;0.984;2023-01-19T06:52:54;17;11;
42410;PMS5003;28056;51.112;0.984;2023-01-19T06:55:21;18;18;
42410;PMS5003;28056;51.112;0.984;2023-01-19T06:57:54;21;19;
42410;PMS5003;28056;51.112;0.984;2023-01-19T07:00:22;18;13;
42410;PMS5003;28056;51.112;0.984;2023-01-19T07:02:51;16;13;
42410;PMS5003;28056;51.112;0.984;2023-01-19T07:05:18;13;13;
42410;PMS5003;28056;51.112;0.984;2023-01-19T07:07:49;13;13;
42410;PMS5003;28056;51.112;0.984;2023-01-19T07:10:18;15;15;
42410;PMS5003;28056;51.112;0.984;2023-01-19T07:12:46;15;13;
42410;PMS5003;28056;51.112;0.984;2023-01-19T07:15:13;15;15;
42410;PMS5003;28056;51.112;0.984;2023-01-19T07:17:42;13;10;
42410;PMS5003;28056;51.112;0.984;2023-01-19T07:20:10;15;13;
42410;PMS5003;28056;51.112;0.984;2023-01-19T07:22:39;18;13;
42410;PMS5003;28056;51.112;0.984;2023-01-19T07:25:06;19;12;
42410;PMS5003;28056;51.112;0.984;2023-01-19T07:27:34;10;10;
42410;PMS5003;28056;51.112;0.984;2023-01-19T07:30:01;13;13;
42410;PMS5003;28056;51.112;0.984;2023-01-19T07:32:29;12;10;
42410;PMS5003;28056;51.112;0.984;2023-01-19T07:34:57;16;12;
42410;PMS5003;28056;51.112;0.984;2023-01-19T07:37:24;12;12;
42410;PMS5003;28056;51.112;0.984;2023-01-19T07:39:51;13;12;
42410;PMS5003;28056;51.112;0.984;2023-01-19T07:42:18;19;13;
42410;PMS5003;28056;51.112;0.984;2023-01-19T07:44:46;18;13;
42410;PMS5003;28056;51.112;0.984;2023-01-19T07:47:13;21;15;
42410;PMS5003;28056;51.112;0.984;2023-01-19T07:49:40;16;15;
42410;PMS5003;28056;51.112;0.984;2023-01-19T07:52:07;10;10;
42410;PMS5003;28056;51.112;0.984;2023-01-19T07:54:36;21;13;
42410;PMS5003;28056;51.112;0.984;2023-01-19T07:57:04;21;13;
42410;PMS5003;28056;51.112;0.984;2023-01-19T07:59:31;19;16;
42410;PMS5003;28056;51.112;0.984;2023-01-19T08:01:58;25;19;
42410;PMS5003;28056;51.112;0.984;2023-01-19T08:04:26;16;12;
42410;PMS5003;28056;51.112;0.984;2023-01-19T08:06:53;25;19;
42410;PMS5003;28056;51.112;0.984;2023-01-19T08:09:22;24;15;
42410;PMS5003;28056;51.112;0.984;2023-01-19T08:11:49;21;18;
42410;PMS5003;28056;51.112;0.984;2023-01-19T08:14:16;22;16;
42410;PMS5003;28056;51.112;0.984;2023-01-19T08:16:43;18;16;
42410;PMS5003;28056;51.112;0.984;2023-01-19T08:19:10;19;19;
42410;PMS5003;28056;51.112;0.984;2023-01-19T08:21:40;18;18;
42410;PMS5003;28056;51.112;0.984;2023-01-19T08:24:10;18;16;
42410;PMS5003;28056;51.112;0.984;2023-01-19T08:26:44;18;16;
42410;PMS5003;28056;51.112;0.984;2023-01-19T08:29:11;28;21;
42410;PMS5003;28056;51.112;0.984;2023-01-19T08:31:38;33;22;
42410;PMS5003;28056;51.112;0.984;2023-01-19T08:34:05;22;21;
42410;PMS5003;28056;51.112;0.984;2023-01-19T08:36:33;19;15;
42410;PMS5003;28056;51.112;0.984;2023-01-19T08:39:00;18;18;
42410;PMS5003;28056;51.112;0.984;2023-01-19T08:41:27;18;15;
42410;PMS5003;28056;51.112;0.984;2023-01-19T08:43:55;15;12;
42410;PMS5003;28056;51.112;0.984;2023-01-19T08:46:23;15;12;
42410;PMS5003;28056;51.112;0.984;2023-01-19T08:48:50;24;16;
42410;PMS5003;28056;51.112;0.984;2023-01-19T08:51:17;18;18;
42410;PMS5003;28056;51.112;0.984;2023-01-19T08:53:45;22;16;
42410;PMS5003;28056;51.112;0.984;2023-01-19T08:56:13;18;15;
42410;PMS5003;28056;51.112;0.984;2023-01-19T08:58:41;18;18;
42410;PMS5003;28056;51.112;0.984;2023-01-19T09:01:10;21;18;
42410;PMS5003;28056;51.112;0.984;2023-01-19T09:03:38;27;21;
42410;PMS5003;28056;51.112;0.984;2023-01-19T09:06:06;28;18;
42410;PMS5003;28056;51.112;0.984;2023-01-19T09:08:34;21;21;
42410;PMS5003;28056;51.112;0.984;2023-01-19T09:11:01;30;25;
42410;PMS5003;28056;51.112;0.984;2023-01-19T09:13:29;39;27;
42410;PMS5003;28056;51.112;0.984;2023-01-19T09:15:56;31;25;
42410;PMS5003;28056;51.112;0.984;2023-01-19T09:18:23;24;24;
42410;PMS5003;28056;51.112;0.984;2023-01-19T09:20:50;27;25;
42410;PMS5003;28056;51.112;0.984;2023-01-19T09:23:18;31;22;
42410;PMS5003;28056;51.112;0.984;2023-01-19T09:25:46;31;23;
42410;PMS5003;28056;51.112;0.984;2023-01-19T09:28:14;28;25;
42410;PMS5003;28056;51.112;0.984;2023-01-19T09:30:42;16;14;
42410;PMS5003;28056;51.112;0.984;2023-01-19T09:33:11;25;19;
42410;PMS5003;28056;51.112;0.984;2023-01-19T09:35:43;20;20;
42410;PMS5003;28056;51.112;0.984;2023-01-19T09:38:11;29;22;
42410;PMS5003;28056;51.112;0.984;2023-01-19T09:40:41;20;19;
42410;PMS5003;28056;51.112;0.984;2023-01-19T09:43:12;28;23;
42410;PMS5003;28056;51.112;0.984;2023-01-19T09:45:44;22;20;
42410;PMS5003;28056;51.112;0.984;2023-01-19T09:48:21;25;22;
42410;PMS5003;28056;51.112;0.984;2023-01-19T09:50:57;25;23;
42410;PMS5003;28056;51.112;0.984;2023-01-19T09:53:33;25;21;
42410;PMS5003;28056;51.112;0.984;2023-01-19T09:56:10;22;21;
42410;PMS5003;28056;51.112;0.984;2023-01-19T09:58:40;21;21;
42410;PMS5003;28056;51.112;0.984;2023-01-19T10:01:11;25;19;
42410;PMS5003;28056;51.112;0.984;2023-01-19T10:03:49;27;21;
42410;PMS5003;28056;51.112;0.984;2023-01-19T10:06:25;28;21;
42410;PMS5003;28056;51.112;0.984;2023-01-19T10:08:55;37;34;
42410;PMS5003;28056;51.112;0.984;2023-01-19T10:11:33;21;19;
42410;PMS5003;28056;51.112;0.984;2023-01-19T10:14:08;28;24;
42410;PMS5003;28056;51.112;0.984;2023-01-19T10:16:48;36;30;
42410;PMS5003;28056;51.112;0.984;2023-01-19T10:19:20;30;28;
42410;PMS5003;28056;51.112;0.984;2023-01-19T10:21:52;31;31;
42410;PMS5003;28056;51.112;0.984;2023-01-19T10:24:24;42;34;
42410;PMS5003;28056;51.112;0.984;2023-01-19T10:26:55;33;28;
42410;PMS5003;28056;51.112;0.984;2023-01-19T10:29:24;32;29;
42410;PMS5003;28056;51.112;0.984;2023-01-19T10:31:56;31;28;
42410;PMS5003;28056;51.112;0.984;2023-01-19T10:34:30;36;31;
42410;PMS5003;28056;51.112;0.984;2023-01-19T10:37:01;33;29;
42410;PMS5003;28056;51.112;0.984;2023-01-19T10:39:38;33;25;
42410;PMS5003;28056;51.112;0.984;2023-01-19T10:42:08;30;24;
42410;PMS5003;28056;51.112;0.984;2023-01-19T10:44:38;23;21;
42410;PMS5003;28056;51.112;0.984;2023-01-19T10:47:11;26;24;
42410;PMS5003;28056;51.112;0.984;2023-01-19T10:49:42;26;26;
42410;PMS5003;28056;51.112;0.984;2023-01-19T10:52:17;27;21;
42410;PMS5003;28056;51.112;0.984;2023-01-19T10:54:49;30;25;
42410;PMS5003;28056;51.112;0.984;2023-01-19T10:57:21;26;24;
42410;PMS5003;28056;51.112;0.984;2023-01-19T10:59:54;27;25;
42410;PMS5003;28056;51.112;0.984;2023-01-19T11:02:22;31;28;
42410;PMS5003;28056;51.112;0.984;2023-01-19T11:04:52;35;29;
42410;PMS5003;28056;51.112;0.984;2023-01-19T11:07:20;39;34;
42410;PMS5003;28056;51.112;0.984;2023-01-19T11:10:10;41;35;
42410;PMS5003;28056;51.112;0.984;2023-01-19T11:12:46;39;38;
42410;PMS5003;28056;51.112;0.984;2023-01-19T11:15:23;31;29;
42410;PMS5003;28056;51.112;0.984;2023-01-19T11:17:54;21;19;
42410;PMS5003;28056;51.112;0.984;2023-01-19T11:20:22;28;23;
42410;PMS5003;28056;51.112;0.984;2023-01-19T11:23:03;31;29;
42410;PMS5003;28056;51.112;0.984;2023-01-19T11:25:32;19;16;
42410;PMS5003;28056;51.112;0.984;2023-01-19T11:28:01;27;23;
42410;PMS5003;28056;51.112;0.984;2023-01-19T11:30:29;20;17;
42410;PMS5003;28056;51.112;0.984;2023-01-19T11:32:56;19;13;
42410;PMS5003;28056;51.112;0.984;2023-01-19T11:35:40;24;21;
42410;PMS5003;28056;51.112;0.984;2023-01-19T11:38:14;16;16;
42410;PMS5003;28056;51.112;0.984;2023-01-19T11:40:45;18;18;
42410;PMS5003;28056;51.112;0.984;2023-01-19T11:43:17;18;15;
42410;PMS5003;28056;51.112;0.984;2023-01-19T11:45:46;30;28;
42410;PMS5003;28056;51.112;0.984;2023-01-19T11:48:14;31;27;
42410;PMS5003;28056;51.112;0.984;2023-01-19T11:50:48;25;24;
42410;PMS5003;28056;51.112;0.984;2023-01-19T11:53:17;24;22;
42410;PMS5003;28056;51.112;0.984;2023-01-19T11:55:49;25;22;
42410;PMS5003;28056;51.112;0.984;2023-01-19T11:58:21;18;17;
42410;PMS5003;28056;51.112;0.984;2023-01-19T12:00:50;14;14;
42410;PMS5003;28056;51.112;0.984;2023-01-19T12:03:22;11;10;
42410;PMS5003;28056;51.112;0.984;2023-01-19T12:05:54;10;7;
42410;PMS5003;28056;51.112;0.984;2023-01-19T12:08:26;14;10;
42410;PMS5003;28056;51.112;0.984;2023-01-19T12:10:59;10;10;
42410;PMS5003;28056;51.112;0.984;2023-01-19T12:13:29;6;6;
42410;PMS5003;28056;51.112;0.984;2023-01-19T12:16:00;11;6;
42410;PMS5003;28056;51.112;0.984;2023-01-19T12:18:33;9;6;
42410;PMS5003;28056;51.112;0.984;2023-01-19T12:21:04;6;6;
42410;PMS5003;28056;51.112;0.984;2023-01-19T12:23:35;8;6;
42410;PMS5003;28056;51.112;0.984;2023-01-19T12:26:44;5;5;
42410;PMS5003;28056;51.112;0.984;2023-01-19T12:29:18;9;7;
42410;PMS5003;28056;51.112;0.984;2023-01-19T12:32:14;7;7;
42410;PMS5003;28056;51.112;0.984;2023-01-19T12:34:43;7;6;
42410;PMS5003;28056;51.112;0.984;2023-01-19T12:37:30;11;7;
42410;PMS5003;28056;51.112;0.984;2023-01-19T12:40:03;13;11;
42410;PMS5003;28056;51.112;0.984;2023-01-19T12:42:50;11;11;
42410;PMS5003;28056;51.112;0.984;2023-01-19T12:45:22;15;9;
42410;PMS5003;28056;51.112;0.984;2023-01-19T12:47:54;9;8;
42410;PMS5003;28056;51.112;0.984;2023-01-19T12:50:22;14;9;
42410;PMS5003;28056;51.112;0.984;2023-01-19T12:52:51;11;7;
42410;PMS5003;28056;51.112;0.984;2023-01-19T12:55:22;13;13;
42410;PMS5003;28056;51.112;0.984;2023-01-19T12:57:54;9;9;
42410;PMS5003;28056;51.112;0.984;2023-01-19T13:00:33;11;10;
42410;PMS5003;28056;51.112;0.984;2023-01-19T13:03:41;14;10;
42410;PMS5003;28056;51.112;0.984;2023-01-19T13:06:35;11;10;
42410;PMS5003;28056;51.112;0.984;2023-01-19T13:09:32;11;9;
42410;PMS5003;28056;51.112;0.984;2023-01-19T13:12:32;7;7;
42410;PMS5003;28056;51.112;0.984;2023-01-19T13:15:33;7;7;
42410;PMS5003;28056;51.112;0.984;2023-01-19T13:18:01;10;7;
42410;PMS5003;28056;51.112;0.984;2023-01-19T13:20:30;10;8;
42410;PMS5003;28056;51.112;0.984;2023-01-19T13:23:25;11;8;
42410;PMS5003;28056;51.112;0.984;2023-01-19T13:26:02;9;8;
42410;PMS5003;28056;51.112;0.984;2023-01-19T13:28:34;9;9;
42410;PMS5003;28056;51.112;0.984;2023-01-19T13:31:06;14;9;
42410;PMS5003;28056;51.112;0.984;2023-01-19T13:33:36;10;10;
42410;PMS5003;28056;51.112;0.984;2023-01-19T13:36:14;10;10;
42410;PMS5003;28056;51.112;0.984;2023-01-19T13:38:48;15;14;
42410;PMS5003;28056;51.112;0.984;2023-01-19T13:41:17;13;12;
42410;PMS5003;28056;51.112;0.984;2023-01-19T13:43:48;12;9;
42410;PMS5003;28056;51.112;0.984;2023-01-19T13:46:21;11;11;
42410;PMS5003;28056;51.112;0.984;2023-01-19T13:48:51;8;8;
42410;PMS5003;28056;51.112;0.984;2023-01-19T13:51:21;12;12;
42410;PMS5003;28056;51.112;0.984;2023-01-19T13:53:53;13;12;
42410;PMS5003;28056;51.112;0.984;2023-01-19T13:56:22;19;18;
42410;PMS5003;28056;51.112;0.984;2023-01-19T13:59:00;21;17;
42410;PMS5003;28056;51.112;0.984;2023-01-19T14:01:30;18;17;
42410;PMS5003;28056;51.112;0.984;2023-01-19T14:03:58;20;17;
42410;PMS5003;28056;51.112;0.984;2023-01-19T14:06:30;20;19;
42410;PMS5003;28056;51.112;0.984;2023-01-19T14:09:05;26;21;
42410;PMS5003;28056;51.112;0.984;2023-01-19T14:11:38;24;22;
42410;PMS5003;28056;51.112;0.984;2023-01-19T14:14:19;27;22;
42410;PMS5003;28056;51.112;0.984;2023-01-19T14:16:48;20;20;
42410;PMS5003;28056;51.112;0.984;2023-01-19T14:19:15;28;25;
42410;PMS5003;28056;51.112;0.984;2023-01-19T14:21:42;19;18;
42410;PMS5003;28056;51.112;0.984;2023-01-19T14:24:14;22;20;
42410;PMS5003;28056;51.112;0.984;2023-01-19T14:26:44;26;19;
42410;PMS5003;28056;51.112;0.984;2023-01-19T14:29:15;28;22;
42410;PMS5003;28056;51.112;0.984;2023-01-19T14:31:48;25;25;
42410;PMS5003;28056;51.112;0.984;2023-01-19T14:34:34;25;22;
42410;PMS5003;28056;51.112;0.984;2023-01-19T14:37:10;29;24;
42410;PMS5003;28056;51.112;0.984;2023-01-19T14:39:43;22;22;
42410;PMS5003;28056;51.112;0.984;2023-01-19T14:42:14;22;22;
42410;PMS5003;28056;51.112;0.984;2023-01-19T14:44:45;33;24;
42410;PMS5003;28056;51.112;0.984;2023-01-19T14:47:19;17;17;
42410;PMS5003;28056;51.112;0.984;2023-01-19T14:49:54;27;22;
42410;PMS5003;28056;51.112;0.984;2023-01-19T14:52:25;20;16;
42410;PMS5003;28056;51.112;0.984;2023-01-19T14:54:55;21;20;
42410;PMS5003;28056;51.112;0.984;2023-01-19T14:57:24;20;19;
42410;PMS5003;28056;51.112;0.984;2023-01-19T14:59:51;22;20;
42410;PMS5003;28056;51.112;0.984;2023-01-19T15:02:19;23;17;
42410;PMS5003;28056;51.112;0.984;2023-01-19T15:04:46;22;22;
42410;PMS5003;28056;51.112;0.984;2023-01-19T15:07:16;30;25;
42410;PMS5003;28056;51.112;0.984;2023-01-19T15:09:44;18;18;
42410;PMS5003;28056;51.112;0.984;2023-01-19T15:12:13;20;19;
42410;PMS5003;28056;51.112;0.984;2023-01-19T15:14:43;22;20;
42410;PMS5003;28056;51.112;0.984;2023-01-19T15:17:13;26;21;
42410;PMS5003;28056;51.112;0.984;2023-01-19T15:19:43;23;20;
42410;PMS5003;28056;51.112;0.984;2023-01-19T15:22:11;24;19;
42410;PMS5003;28056;51.112;0.984;2023-01-19T15:24:38;28;23;
42410;PMS5003;28056;51.112;0.984;2023-01-19T15:27:07;20;17;
42410;PMS5003;28056;51.112;0.984;2023-01-19T15:29:37;20;19;
42410;PMS5003;28056;51.112;0.984;2023-01-19T15:32:05;20;15;
42410;PMS5003;28056;51.112;0.984;2023-01-19T15:34:37;22;22;
42410;PMS5003;28056;51.112;0.984;2023-01-19T15:37:04;24;20;
42410;PMS5003;28056;51.112;0.984;2023-01-19T15:39:31;23;16;
42410;PMS5003;28056;51.112;0.984;2023-01-19T15:41:58;17;13;
42410;PMS5003;28056;51.112;0.984;2023-01-19T15:44:25;17;13;
42410;PMS5003;28056;51.112;0.984;2023-01-19T15:46:52;16;13;
42410;PMS5003;28056;51.112;0.984;2023-01-19T15:49:20;25;15;
42410;PMS5003;28056;51.112;0.984;2023-01-19T15:51:48;16;15;
42410;PMS5003;28056;51.112;0.984;2023-01-19T15:54:15;13;13;
42410;PMS5003;28056;51.112;0.984;2023-01-19T15:56:43;18;15;
42410;PMS5003;28056;51.112;0.984;2023-01-19T15:59:10;18;16;
42410;PMS5003;28056;51.112;0.984;2023-01-19T16:01:37;15;13;
42410;PMS5003;28056;51.112;0.984;2023-01-19T16:04:06;19;15;
42410;PMS5003;28056;51.112;0.984;2023-01-19T16:06:34;16;14;
42410;PMS5003;28056;51.112;0.984;2023-01-19T16:09:01;15;15;
42410;PMS5003;28056;51.112;0.984;2023-01-19T16:11:30;18;15;
42410;PMS5003;28056;51.112;0.984;2023-01-19T16:13:59;15;14;
42410;PMS5003;28056;51.112;0.984;2023-01-19T16:16:27;19;12;
42410;PMS5003;28056;51.112;0.984;2023-01-19T16:18:55;15;11;
42410;PMS5003;28056;51.112;0.984;2023-01-19T16:21:22;18;15;
42410;PMS5003;28056;51.112;0.984;2023-01-19T16:23:49;14;9;
42410;PMS5003;28056;51.112;0.984;2023-01-19T16:26:22;22;12;
42410;PMS5003;28056;51.112;0.984;2023-01-19T16:28:51;21;12;
42410;PMS5003;28056;51.112;0.984;2023-01-19T16:31:21;16;12;
42410;PMS5003;28056;51.112;0.984;2023-01-19T16:33:49;18;16;
42410;PMS5003;28056;51.112;0.984;2023-01-19T16:36:18;11;11;
42410;PMS5003;28056;51.112;0.984;2023-01-19T16:38:47;16;13;
42410;PMS5003;28056;51.112;0.984;2023-01-19T16:41:14;23;16;
42410;PMS5003;28056;51.112;0.984;2023-01-19T16:43:43;16;16;